This is the latest recevied weather packets stored in our database for station/object KB4NWJ. If no packets are shown the sender has not sent any weather packets the latest 10 day(s).
| Time | Temp. | Humidity | Pressure | Rain* | Wind** | Luminosity | Snow |
|---|---|---|---|---|---|---|---|
| 1777306209 | 21.11° C | 74% | 1022.1 hPa | 0 mm | - | 679 W/m² | - |
| 1777305904 | 20.56° C | 75% | 1021.8 hPa | 0 mm | - | 672 W/m² | - |
| 1777305601 | 20.56° C | 75% | 1022.1 hPa | 0 mm | - | 728 W/m² | - |
| 1777305297 | 21.11° C | 74% | 1022.2 hPa | 0 mm | - | 773 W/m² | - |
| 1777304996 | 20.56° C | 78% | 1022.2 hPa | 0 mm | - | 771 W/m² | - |
| 1777304692 | 20.56° C | 79% | 1022 hPa | 0 mm | - | 773 W/m² | - |
| 1777304390 | 19.44° C | 79% | 1022.1 hPa | 0 mm | - | 762 W/m² | - |
| 1777304087 | 19.44° C | 78% | 1021.8 hPa | 0 mm | - | 744 W/m² | - |
| 1777303784 | 19.44° C | 79% | 1021.8 hPa | 0 mm | - | 770 W/m² | - |
| 1777303481 | 19.44° C | 78% | 1021.9 hPa | 0 mm | - | 786 W/m² | - |
| 1777303178 | 20° C | 77% | 1022 hPa | 0 mm | - | 782 W/m² | - |
| 1777302877 | 18.89° C | 81% | 1021.7 hPa | 0 mm | - | 843 W/m² | - |
| 1777302573 | 18.89° C | 81% | 1021.9 hPa | 0 mm | - | 286 W/m² | - |
| 1777302272 | 18.33° C | 81% | 1021.9 hPa | 0 mm | - | 592 W/m² | - |
| 1777301969 | 18.33° C | 81% | 1021.9 hPa | 0 mm | - | 356 W/m² | - |
| 1777301667 | 18.33° C | 81% | 1022.2 hPa | 0 mm | - | 296 W/m² | - |
| 1777301363 | 18.89° C | 79% | 1021.9 hPa | 0 mm | - | 364 W/m² | - |
| 1777301060 | 18.33° C | 81% | 1021.9 hPa | 0 mm | - | 514 W/m² | - |
| 1777300757 | 17.78° C | 83% | 1022.2 hPa | 0 mm | - | 431 W/m² | - |
| 1777300455 | 17.78° C | 83% | 1022.2 hPa | 0 mm | - | 305 W/m² | - |
| 1777300152 | 17.78° C | 85% | 1021.9 hPa | 0 mm | - | 786 W/m² | - |
| 1777299848 | 17.22° C | 84% | 1022 hPa | 0 mm | - | 248 W/m² | - |
| 1777299546 | 17.22° C | 84% | 1021.9 hPa | 0 mm | - | 221 W/m² | - |
| 1777299244 | 17.22° C | 85% | 1021.8 hPa | 0 mm | - | 217 W/m² | - |
| 1777298941 | 17.22° C | 84% | 1021.8 hPa | 0 mm | - | 223 W/m² | - |
* Rain latest hour (hover to see other rain measurements)
** Current wind speed in m/s (hover to see current wind gust speed)